Tuesday, January 23, 2018, 7:18 AM EST
Back to Local

KFWN, Sussex Airport

Location: Sussex, NJ, United States Lat: 41.2
Local Time: 7:18 AM EST (12:18 GMT) Lon: -74.633
Time Zone: US/Eastern Elev: 419 ft

Show me the last for .
Show Decoded

2018-01-23 07:06 METAR KFWN 231206Z AUTO 00000KT 1 1/4SM +RA BR BKN006 OVC010 04/04 A2976 RMK AO2
                 P0006 T00390039 $ =
2018-01-23 06:53 METAR KFWN 231153Z AUTO 00000KT 3/4SM -RA BR BKN007 OVC011 04/04 A2976 RMK AO2
                 SLP078 P0017 6//// 7//// T00390039 10039 20022 56043 $ =
2018-01-23 06:26 METAR KFWN 231126Z AUTO 00000KT 1 1/4SM RA BR BKN005 OVC011 04/04 A2977 RMK AO2
                 P0005 T00390039 $ =
2018-01-23 06:07 METAR KFWN 231107Z AUTO 00000KT 1 1/2SM -RA BR OVC005 03/03 A2978 RMK AO2 P0002
                 T00330033 $ =
2018-01-23 06:00 METAR KFWN 231100Z AUTO 00000KT 3/4SM -RA BR OVC005 03/03 A2978 RMK AO2 LTG DSNT
                 SE P0001 T00330033 $ =
2018-01-23 05:53 METAR KFWN 231053Z AUTO 00000KT 1SM -RA BR OVC005 03/03 A2979 RMK AO2 LTG DSNT
                 SE RAB26 SLP088 P0002 T00330033 $ =
2018-01-23 05:49 METAR KFWN 231049Z AUTO 00000KT 1 1/2SM RA BR OVC005 03/03 A2979 RMK AO2 LTG
                 DSNT SE RAB26 P0002 $ =
2018-01-23 05:34 METAR KFWN 231034Z AUTO 00000KT 2SM -RA BR OVC004 03/03 A2980 RMK AO2 RAB26
                 P0001 T00330033 $ =
2018-01-23 05:16 METAR KFWN 231016Z AUTO 00000KT 2 1/2SM BR OVC005 03/03 A2982 RMK AO2 T00330028
                 $ =
2018-01-23 05:06 METAR KFWN 231006Z AUTO 06003KT 1 3/4SM BR OVC006 03/03 A2982 RMK AO2 T00330033
                 $ =
2018-01-23 04:53 METAR KFWN 230953Z AUTO 00000KT 2 1/2SM BR OVC005 03/03 A2984 RMK AO2 SLP106
                 T00330033 $ =
2018-01-23 04:32 METAR KFWN 230932Z AUTO 00000KT 2 1/2SM BR OVC005 03/03 A2985 RMK AO2 T00330028
                 $ =
2018-01-23 04:25 METAR KFWN 230925Z AUTO 02003KT 2SM BR OVC007 03/03 A2985 RMK AO2 CIG 004V008
                 PRESFR T00330028 $ =
2018-01-23 04:08 METAR KFWN 230908Z AUTO 00000KT 1 1/2SM BR BKN007 OVC011 03/03 A2987 RMK AO2
                 PRESFR T00280028 $ =
2018-01-23 03:53 METAR KFWN 230853Z AUTO 00000KT 2 1/2SM BR OVC009 03/03 A2989 RMK AO2 SLP122
                 6//// T00330033 $ =
2018-01-23 03:39 METAR KFWN 230839Z AUTO 00000KT 2 1/2SM BR OVC008 03/03 A2988 RMK AO2 CIG
                 007V011 T00280028 $ =
2018-01-23 03:26 METAR KFWN 230826Z AUTO 07004KT 1 1/2SM BR OVC008 02/02 A2988 RMK AO2 PRESFR
                 T00220022 $ =
2018-01-23 03:19 METAR KFWN 230819Z AUTO 00000KT 2SM BR OVC008 02/02 A2989 RMK AO2 T00220022 $ =
2018-01-23 02:53 METAR KFWN 230753Z AUTO 00000KT 1 3/4SM BR OVC009 02/02 A2992 RMK AO2 CIG
                 007V012 SLP132 T00220022 $ =
2018-01-23 02:36 METAR KFWN 230736Z AUTO 00000KT 1 3/4SM BR 02/02 A2994 RMK AO2 T00220022 $ =
2018-01-23 00:19 METAR KFWN 230519Z AUTO 00000KT 2 1/2SM BR OVC011 02/02 A3000 RMK AO2 T00220017
                 =
2018-01-23 00:00 METAR KFWN 230500Z AUTO 00000KT 1 3/4SM BR OVC012 01/01 A3001 RMK AO2 PRESFR
                 T00110011 =
2018-01-22 23:53 METAR KFWN 230453Z AUTO 00000KT 2SM BR BKN008 OVC012 02/02 A3003 RMK AO2 CIG
                 005V011 SLP170 T00170017 400670011 =
2018-01-22 23:47 METAR KFWN 230447Z AUTO 00000KT 2 1/2SM BR OVC010 02/02 A3003 RMK AO2 CIG
                 005V013 =
2018-01-22 22:53 METAR KFWN 230353Z AUTO 00000KT 4SM BR OVC009 03/02 A3006 RMK AO2 SLP182
                 T00280022 =
2018-01-22 22:51 METAR KFWN 230351Z AUTO 00000KT 4SM BR OVC009 03/02 A3006 RMK AO2 =
2018-01-22 21:53 METAR KFWN 230253Z AUTO 00000KT 4SM BR OVC010 03/02 A3005 RMK AO2 CIG 009V013
                 SLP179 T00280022 58022 =
2018-01-22 20:53 METAR KFWN 230153Z AUTO 00000KT 4SM BR OVC011 03/02 A3008 RMK AO2 SLP188
                 T00330022 =
2018-01-22 19:53 METAR KFWN 230053Z AUTO 00000KT 5SM BR BKN014 03/02 A3010 RMK AO2 SLP197
                 T00280022 =
2018-01-22 19:27 METAR KFWN 230027Z AUTO 00000KT 4SM BR BKN014 03/02 A3011 RMK AO2 T00280022 =
2018-01-22 18:53 METAR KFWN 222353Z AUTO 05003KT 6SM BR FEW100 04/02 A3012 RMK AO2 SLP202
                 T00390022 10067 20039 51003 =
2018-01-22 17:53 METAR KFWN 222253Z AUTO 03004KT 6SM BR OVC100 04/03 A3012 RMK AO2 SLP202
                 T00440028 =
2018-01-22 16:53 METAR KFWN 222153Z AUTO 05005KT 5SM BR SCT060 OVC080 05/03 A3012 RMK AO2 SLP201
                 T00500033 =
2018-01-22 15:53 METAR KFWN 222053Z AUTO 02007KT 5SM BR BKN055 OVC075 06/03 A3011 RMK AO2 SLP199
                 T00560033 55008 =
2018-01-22 15:36 METAR KFWN 222036Z AUTO 03006KT 5SM BR SCT022 OVC050 06/04 A3011 RMK AO2
                 T00610039 =
2018-01-22 14:53 METAR KFWN 221953Z AUTO 03007KT 5SM BR OVC021 06/04 A3010 RMK AO2 SLP197
                 T00610039 =
2018-01-22 13:53 METAR KFWN 221853Z AUTO 02006KT 5SM BR OVC019 06/04 A3012 RMK AO2 SLP202
                 T00610039 =
2018-01-22 12:53 METAR KFWN 221753Z AUTO 07006KT 5SM BR OVC018 06/04 A3013 RMK AO2 SLP206
                 T00610039 10067 20011 58014 =
2018-01-22 12:00 METAR KFWN 221700Z AUTO 03005KT 6SM BR FEW009 BKN015 BKN030 06/04 A3015 RMK AO2
                 T00610039 =
2018-01-22 11:53 METAR KFWN 221653Z AUTO 02006KT 6SM BR FEW009 SCT015 BKN030 06/04 A3015 RMK AO2
                 SLP212 T00610039 =
2018-01-22 11:44 METAR KFWN 221644Z AUTO 03007KT 6SM BR SCT009 BKN032 06/04 A3015 RMK AO2
                 T00560039 =
2018-01-22 11:35 METAR KFWN 221635Z AUTO 05005KT 6SM BR BKN009 05/03 A3016 RMK AO2 T00500033 =
2018-01-22 11:26 METAR KFWN 221626Z AUTO VRB04KT 6SM BR SCT009 06/04 A3016 RMK AO2 T00560039 =
2018-01-22 10:53 METAR KFWN 221553Z AUTO 03005KT 5SM BR BKN050 BKN100 04/04 A3017 RMK AO2 SLP221
                 T00440039 =
2018-01-22 10:50 METAR KFWN 221550Z AUTO 04006KT 4SM BR FEW007 SCT050 OVC100 04/04 A3017 RMK AO2
                 =
2018-01-22 10:41 METAR KFWN 221541Z AUTO 04004KT 3SM BR FEW022 SCT050 OVC100 04/03 A3018 RMK AO2
                 T00390028 =
2018-01-22 10:32 METAR KFWN 221532Z AUTO 08004KT 2 1/2SM BR SCT022 BKN050 OVC100 04/03 A3018 RMK
                 AO2 T00390033 =
2018-01-22 10:13 METAR KFWN 221513Z AUTO 15003KT 2 1/2SM BR BKN023 OVC048 03/03 A3019 RMK AO2
                 T00330033 =
2018-01-22 10:03 METAR KFWN 221503Z AUTO 00000KT 2 1/2SM BR SCT022 BKN048 OVC100 03/03 A3019 RMK
                 AO2 T00330028 =
2018-01-22 09:53 METAR KFWN 221453Z AUTO 02003KT 3SM BR FEW023 BKN050 OVC100 03/03 A3019 RMK AO2
                 SLP226 T00330028 53016 =
2018-01-22 09:28 METAR KFWN 221428Z AUTO 00000KT 2SM BR FEW023 OVC050 03/03 A3019 RMK AO2
                 T00280028 =
2018-01-22 09:12 METAR KFWN 221412Z AUTO 00000KT 1 3/4SM BR BKN050 OVC095 02/02 A3018 RMK AO2
                 T00220022 =
2018-01-22 08:53 METAR KFWN 221353Z AUTO 00000KT 1SM BR FEW050 OVC090 02/02 A3017 RMK AO2 SLP220
                 T00170017 =
2018-01-22 08:50 METAR KFWN 221350Z AUTO 00000KT 1 1/4SM BR OVC090 02/02 A3017 RMK AO2 =
2018-01-22 08:37 METAR KFWN 221337Z AUTO 00000KT 2SM BR OVC090 02/02 A3017 RMK AO2 T00220022 =
2018-01-22 08:22 METAR KFWN 221322Z AUTO 00000KT 1 1/4SM BR FEW003 SCT021 OVC090 02/02 A3017 RMK
                 AO2 T00170017 =
2018-01-22 08:16 METAR KFWN 221316Z AUTO 00000KT 1 3/4SM BR FEW003 BKN020 OVC090 02/02 A3016 RMK
                 AO2 T00170017 =
2018-01-22 08:13 METAR KFWN 221313Z AUTO 00000KT 2SM BR BKN020 OVC090 02/02 A3017 RMK AO2
                 T00170017 =
2018-01-22 07:53 METAR KFWN 221253Z AUTO 00000KT 1 3/4SM BR OVC020 02/02 A3016 RMK AO2 SLP217
                 T00170017 =
2018-01-22 07:41 METAR KFWN 221241Z AUTO 00000KT 2 1/2SM BR OVC020 02/02 A3016 RMK AO2 T00170017
                 =
2018-01-22 07:26 METAR KFWN 221226Z AUTO 00000KT 3SM BR OVC021 02/02 A3016 RMK AO2 T00220017 =

Support USWX by starting your Amazon purchase here.